• Join FlightAware (Why Join?)
  • Login
  • US Flag 
04:56AM EST


 

Airport Tracker/Info


-or-


 

Live Flight TrackerFlight Track Log ✈ UPS2774 ✈ 15-Jul-2013 ✈ KSDF - KIAH

Flight Track Log - Related Links

Times and Time Zones

All times are in EDT time to prevent confusion due to time zone crossing. See the UPS2774 flight status page for this flight to view local times or setup timezone preferences in your user account.

Time Position Orientation Groundspeed Altitude Reporting Facility
EDT Latitude Longitude Course Direction KTS MPH feet Rate Location/Type
04:54PM 38.1650 -85.7380 292° West 17 20  Level FlightAware
04:54PM 38.1660 -85.7400 302° West 16 18 60 Level FlightAware
04:55PM 38.1670 -85.7410 322° Northwest 17 20 60 Level FlightAware
04:55PM 38.1690 -85.7410 360° North 18 21 60 Level FlightAware
04:55PM 38.1710 -85.7420 339° North 21 24 60 Level FlightAware
04:57PM 38.1770 -85.7440 345° North 18 21 60 Level FlightAware
04:57PM 38.1800 -85.7450 345° North 22 25 60 Level FlightAware
04:58PM 38.1830 -85.7460 345° North 25 29 60 Level FlightAware
04:58PM 38.1840 -85.7460 360° North 18 21 60 Level FlightAware
05:01PM 37.9631 -86.0448 233° Southwest  Level Estimated
05:02PM 37.8727 -86.1663 274° West  Level Estimated
05:03PM 37.8852 -86.3324 275° West  Level FlightAware Approximate
05:04PM 37.7937 -86.4523 270° West  Level Estimated
05:05PM 37.7020 -86.5720 270° West  Level Estimated
05:06PM 38.1840 -85.7480 180° South  Level FlightAware
05:06PM 38.1770 -85.7460 167° South 115 132 960 Level FlightAware
05:07PM 38.1570 -85.7390 165° South 161 185 900 1,980 Climbing FlightAware
05:07PM 38.1360 -85.7340 169° South 188 216 1,900 2,100 Climbing FlightAware
05:07PM 38.1310 -85.7330 171° South 195 224 2,100 1,860 Climbing FlightAware
05:08PM 38.0940 -85.7420 191° South 259 298 3,200 1,980 Climbing FlightAware
05:08PM 38.0830 -85.7560 225° Southwest 275 316 3,700 3,180 Climbing FlightAware
05:08PM 38.0760 -85.7800 250° West 277 319 4,700 3,720 Climbing FlightAware
05:09PM 38.0760 -85.8060 270° West 285 328 5,700 3,360 Climbing FlightAware
05:09PM 38.0770 -85.8550 272° West 302 348 7,200 3,480 Climbing FlightAware
05:09PM 38.0780 -85.8910 272° West 301 346 8,500 2,880 Climbing FlightAware
05:10PM 38.0660 -85.9750 260° West 314 361 10,600 2,220 Climbing FlightAware
05:11PM 38.0090 -86.0600 230° Southwest 369 425 12,600 2,160 Climbing FlightAware
05:12PM 37.9810 -86.1410 246° West 402 463 14,000 2,640 Climbing FlightAware
05:13PM 37.9480 -86.2410 247° West 412 474 16,300 2,580 Climbing FlightAware
05:14PM 37.9010 -86.3700 245° Southwest 429 494 18,700 1,740 Climbing FlightAware
05:14PM 37.8700 -86.4580 246° West 436 502 19,400 840 Climbing FlightAware
05:16PM 37.7910 -86.6710 245° Southwest 447 514 20,700 2,520 Climbing FlightAware
05:17PM 37.7330 -86.8270 245° Southwest 487 560 25,400 4,320 Climbing FlightAware
05:17PM 37.6950 -86.9300 245° Southwest 494 568 26,800 1,980 Climbing FlightAware
05:18PM 37.6510 -87.0490 245° Southwest 501 577 28,200 1,620 Climbing FlightAware
05:19PM 37.6100 -87.1600 245° Southwest 512 589 29,200 1,860 Climbing FlightAware
05:19PM 37.5670 -87.2760 245° Southwest 508 585 30,900 2,220 Climbing FlightAware
05:20PM 37.5360 -87.3580 245° Southwest 505 581 32,000 1,620 Climbing FlightAware
05:21PM 37.4900 -87.4800 245° Southwest 510 587 33,000 1,620 Climbing FlightAware
05:21PM 37.4500 -87.5860 245° Southwest 507 583 34,300 1,800 Climbing FlightAware
05:22PM 37.4050 -87.7040 244° Southwest 501 577 35,600 1,800 Climbing FlightAware
05:23PM 37.3660 -87.8060 244° Southwest 490 564 36,900 1,500 Climbing FlightAware
05:23PM 37.3260 -87.9140 245° Southwest 488 562 37,700 720 Climbing FlightAware
05:24PM 37.2830 -88.0250 244° Southwest 486 559 38,000 180 Climbing FlightAware
05:25PM 37.2430 -88.1300 244° Southwest 484 557 38,000  Level FlightAware
05:26PM 37.2080 -88.2220 244° Southwest 483 556 38,000  Level FlightAware
05:26PM 37.1620 -88.3410 244° Southwest 487 560 38,000  Level FlightAware
05:27PM 37.1190 -88.4530 244° Southwest 489 563 38,000  Level FlightAware
05:28PM 37.0820 -88.5490 244° Southwest 491 565 38,000  Level FlightAware
05:28PM 37.0360 -88.6670 244° Southwest 490 564 38,000  Level FlightAware
05:29PM 36.9900 -88.7850 244° Southwest 490 564 38,000  Level FlightAware
05:30PM 36.9590 -88.8640 244° Southwest 489 563 38,000  Level FlightAware
05:32PM 36.8390 -89.1660 244° Southwest 487 560 38,000  Level FlightAware
05:32PM 36.8050 -89.2510 243° Southwest 487 560 38,000  Level FlightAware
05:33PM 36.7730 -89.3280 243° Southwest 487 560 38,000  Level FlightAware
05:34PM 36.7230 -89.4560 244° Southwest 486 559 38,000  Level FlightAware
05:34PM 36.6790 -89.5660 244° Southwest 487 560 38,000 60 Level FlightAware
05:35PM 36.6410 -89.6630 244° Southwest 487 560 38,100 60 Climbing FlightAware
05:36PM 36.5980 -89.7700 243° Southwest 487 560 38,100  Level FlightAware
05:36PM 36.5640 -89.8530 243° Southwest 487 560 38,100 -120 Level FlightAware
05:37PM 36.4980 -90.0160 243° Southwest 487 560 38,000 -120 Descending FlightAware
05:38PM 36.4590 -90.1100 243° Southwest 487 560 38,000  Level FlightAware
05:39PM 36.4180 -90.2100 243° Southwest 487 560 38,000  Level FlightAware
05:39PM 36.3730 -90.3210 243° Southwest 486 559 38,000  Level FlightAware
05:40PM 36.3330 -90.4180 243° Southwest 485 558 38,000  Level FlightAware
05:41PM 36.2890 -90.5240 243° Southwest 483 556 38,000  Level FlightAware
05:42PM 36.2450 -90.6310 243° Southwest 483 556 38,000  Level FlightAware
05:42PM 36.2040 -90.7290 243° Southwest 482 555 38,000  Level FlightAware
05:43PM 36.1650 -90.8230 243° Southwest 480 552 38,000  Level FlightAware
05:43PM 36.1270 -90.9130 242° Southwest 480 552 38,000  Level FlightAware
05:44PM 36.0960 -91.0220 251° West 482 555 38,000  Level FlightAware
05:45PM 36.0770 -91.1160 256° West 481 554 38,000  Level FlightAware
05:46PM 36.0490 -91.2570 256° West 480 552 38,000  Level FlightAware
05:46PM 36.0290 -91.3530 256° West 481 554 38,000  Level FlightAware
05:47PM 36.0020 -91.4810 255° West 483 556 38,000  Level FlightAware
05:48PM 35.9810 -91.5870 256° West 485 558 38,000 60 Level FlightAware
05:48PM 35.9580 -91.6950 255° West 486 559 38,100  Climbing FlightAware
05:49PM 35.9340 -91.8140 256° West 488 562 38,000 -120 Descending FlightAware
05:50PM 35.9120 -91.9160 255° West 490 564 38,000 60 Level FlightAware
05:50PM 35.8850 -92.0410 255° West 492 566 38,100 60 Climbing FlightAware
05:51PM 35.8620 -92.1480 255° West 492 566 38,100  Level FlightAware
05:52PM 35.8390 -92.2570 255° West 493 567 38,100 -120 Level FlightAware
05:52PM 35.8180 -92.3530 255° West 493 567 38,000 -120 Descending FlightAware
05:53PM 35.7930 -92.4710 255° West 494 568 38,000  Level FlightAware
05:54PM 35.7680 -92.5820 255° West 494 568 38,000  Level FlightAware
05:55PM 35.7430 -92.7000 255° West 491 565 38,000  Level FlightAware
05:55PM 35.7180 -92.8190 256° West 491 565 38,000  Level FlightAware
05:56PM 35.6930 -92.9280 254° West 489 563 38,000  Level FlightAware
05:57PM 35.6690 -93.0390 255° West 484 557 38,000  Level FlightAware
05:57PM 35.6480 -93.1320 254° West 482 555 38,000  Level FlightAware
05:58PM 35.6240 -93.2400 255° West 478 550 38,000  Level FlightAware
05:59PM 35.5980 -93.3560 255° West 474 545 38,000  Level FlightAware
05:59PM 35.5800 -93.4360 255° West 475 547 38,000  Level FlightAware
06:00PM 35.5550 -93.5470 255° West 478 550 38,000  Level FlightAware
06:01PM 35.5280 -93.6670 255° West 485 558 38,000 60 Level FlightAware
06:01PM 35.5060 -93.7630 254° West 491 565 38,100  Climbing FlightAware
06:02PM 35.4800 -93.8790 255° West 489 563 38,000 -120 Descending FlightAware
06:03PM 35.4520 -93.9990 254° West 485 558 38,000  Level FlightAware
06:03PM 35.4260 -94.1120 254° West 478 550 38,000  Level FlightAware
06:04PM 35.4050 -94.1950 253° West 472 543 38,000  Level FlightAware
06:05PM 35.3590 -94.2930 240° Southwest 459 528 38,000  Level FlightAware
06:05PM 35.3080 -94.3590 227° Southwest 452 520 38,000  Level FlightAware
06:06PM 35.2530 -94.4190 222° Southwest 452 520 38,000  Level FlightAware
06:07PM 35.1800 -94.4990 222° Southwest 456 525 38,000  Level FlightAware
06:07PM 35.1220 -94.5620 222° Southwest 458 527 38,000  Level FlightAware
06:08PM 35.0400 -94.6500 221° Southwest 463 533 38,000 60 Level FlightAware
06:09PM 34.9790 -94.7160 222° Southwest 463 533 38,100  Climbing FlightAware
06:10PM 34.9340 -94.7650 222° Southwest 461 531 38,000 -60 Descending FlightAware
06:11PM 34.8420 -94.8620 221° Southwest 461 531 38,000  Level FlightAware
06:12PM 34.7590 -94.9500 221° Southwest 461 531 38,000  Level FlightAware
06:13PM 34.7080 -95.0040 221° Southwest 461 531 38,000  Level FlightAware
06:13PM 34.6430 -95.0730 221° Southwest 461 531 38,000  Level FlightAware
06:14PM 34.5920 -95.1260 221° Southwest 461 531 38,000  Level FlightAware
06:15PM 34.5210 -95.2020 221° Southwest 461 531 38,000  Level FlightAware
06:16PM 34.3020 -95.4380 222° Southwest 440 506 38,000  Level FlightAware
06:17PM 34.2390 -95.5050 221° Southwest 441 507 38,100  Climbing FlightAware
06:17PM 34.1790 -95.5680 221° Southwest 439 505 38,000 -120 Descending FlightAware
06:18PM 34.0940 -95.6560 221° Southwest 436 502 38,000  Level FlightAware
06:19PM 34.0360 -95.7170 221° Southwest 435 501 38,000  Level FlightAware
06:20PM 33.9810 -95.7750 221° Southwest 437 503 38,000  Level FlightAware
06:20PM 33.9110 -95.8480 221° Southwest 439 505 38,000  Level FlightAware
06:21PM 33.8420 -95.9190 221° Southwest 442 509 38,000 60 Level FlightAware
06:22PM 33.7780 -95.9860 221° Southwest 443 510 38,100 60 Climbing FlightAware
06:22PM 33.7120 -96.0540 221° Southwest 444 511 38,100 -120 Level FlightAware
06:23PM 33.6440 -96.1250 221° Southwest 443 510 38,000 -120 Descending FlightAware
06:24PM 33.5840 -96.1860 220° Southwest 444 511 38,000  Level FlightAware
06:25PM 33.5190 -96.2570 222° Southwest 445 512 38,000  Level FlightAware
06:25PM 33.4840 -96.3520 246° West 459 528 38,000  Level FlightAware
06:26PM 33.4940 -96.4570 277° West 478 550 38,000  Level FlightAware
06:27PM 33.5460 -96.5520 303° West 490 564 38,000  Level FlightAware
06:27PM 33.6050 -96.6370 310° West 488 562 38,000  Level FlightAware
06:28PM 33.6700 -96.7330 309° West 486 559 38,000  Level FlightAware
06:29PM 33.7210 -96.8090 309° West 483 556 38,000  Level FlightAware
06:29PM 33.7390 -96.8520 297° West 473 544 38,000  Level FlightAware
06:30PM 33.7500 -96.9500 278° West 458 527 38,000 60 Level FlightAware
06:30PM 33.7160 -97.0580 249° West 442 509 38,100 60 Climbing FlightAware
06:31PM 33.6750 -97.1070 225° Southwest 436 502 38,100 -120 Level FlightAware
06:32PM 33.6080 -97.1440 205° Southwest 431 496 38,000 -120 Descending FlightAware
06:32PM 33.5690 -97.1490 186° South 430 495 38,000  Level FlightAware
06:33PM 33.4830 -97.1270 168° South 431 496 38,000  Level FlightAware
06:33PM 33.4150 -97.1020 163° South 429 494 38,000  Level FlightAware
06:34PM 33.3360 -97.0720 162° South 430 495 38,000  Level FlightAware
06:35PM 33.2550 -97.0410 162° South 431 496 38,000  Level FlightAware
06:35PM 33.1720 -97.0100 163° South 434 499 38,000  Level FlightAware
06:36PM 33.0960 -96.9810 162° South 436 502 38,000 60 Level FlightAware
06:37PM 33.0110 -96.9490 162° South 437 503 38,100 60 Climbing FlightAware
06:37PM 32.9330 -96.9200 163° South 438 504 38,100 -120 Level FlightAware
06:38PM 32.8610 -96.8960 164° South 436 502 38,000 -120 Descending FlightAware
06:39PM 32.7760 -96.8710 166° South 440 506 38,000  Level FlightAware
06:39PM 32.6990 -96.8490 166° South 442 509 38,000  Level FlightAware
06:40PM 32.6260 -96.8280 166° South 443 510 38,000  Level FlightAware
06:41PM 32.5440 -96.8050 167° South 443 510 38,000  Level FlightAware
06:41PM 32.4560 -96.7790 166° South 446 513 38,000  Level FlightAware
06:42PM 32.3750 -96.7560 167° South 447 514 38,000  Level FlightAware
06:43PM 32.2860 -96.7310 167° South 448 516 38,000  Level FlightAware
06:43PM 32.2080 -96.7090 167° South 448 516 38,000 -420 Level FlightAware
06:44PM 32.1389 -96.7146 184° South 439 505 37,500 -840 Descending FlightAware ADS-B
06:44PM 32.0935 -96.7367 202° Southwest 439 505 37,200 -900 Descending FlightAware ADS-B
06:45PM 32.0004 -96.7872 204° Southwest 441 507 36,400 -300 Descending FlightAware ADS-B
06:46PM 31.9770 -96.7980 201° Southwest 443 510 36,800 -1,020 Climbing FlightAware
06:46PM 31.9202 -96.8314 207° Southwest 454 522 35,700 -1,980 Descending FlightAware ADS-B
06:47PM 31.8242 -96.8847 205° Southwest 460 529 34,800 -1,020 Descending FlightAware ADS-B
06:47PM 31.8145 -96.8889 200° South 461 531 34,800 -840 Level FlightAware ADS-B
06:47PM 31.7768 -96.8996 191° South 464 534 34,500 -1,080 Descending FlightAware ADS-B
06:47PM 31.7541 -96.9019 185° South 465 535 34,300 -1,200 Descending FlightAware ADS-B
06:48PM 31.7314 -96.9013 179° South 468 539 34,100 -900 Descending FlightAware ADS-B
06:48PM 31.7224 -96.9002 174° South 468 539 34,100 -600 Level FlightAware ADS-B
06:48PM 31.7093 -96.8977 171° South 470 541 34,000 -1,080 Descending FlightAware ADS-B
06:49PM 31.6025 -96.8292 142° Southeast 484 557 33,000 -1,080 Descending FlightAware ADS-B
06:49PM 31.5607 -96.7501 114° Southeast 465 535 32,400 -1,020 Descending FlightAware ADS-B
06:51PM 31.4336 -96.6144 175° South 439 505 30,900 -1,080 Descending FlightAware ADS-B
06:52PM 31.3255 -96.6505 201° Southwest 434 499 29,800 -1,260 Descending FlightAware ADS-B
06:53PM 31.2082 -96.7196 211° Southwest 414 476 28,400 -1,200 Descending FlightAware ADS-B
06:53PM 31.1521 -96.7601 212° Southwest 390 449 27,800 -1,080 Descending FlightAware ADS-B
06:55PM 31.0405 -96.8415 211° Southwest 369 425 26,500 -1,020 Descending FlightAware ADS-B
06:55PM 31.0276 -96.8473 201° Southwest 367 422 26,400 -960 Descending FlightAware ADS-B
06:55PM 30.9655 -96.8570 187° South 362 417 25,800 -1,020 Descending FlightAware ADS-B
06:56PM 30.9153 -96.8635 186° South 360 414 25,300 -1,080 Descending FlightAware ADS-B
06:56PM 30.8801 -96.8640 176° South 357 411 24,900 -1,080 Descending FlightAware ADS-B
06:57PM 30.8238 -96.8418 160° South 357 411 24,300 -1,020 Descending FlightAware ADS-B
06:57PM 30.7772 -96.8223 160° South 357 411 23,800 -960 Descending FlightAware ADS-B
06:58PM 30.7463 -96.8083 155° Southeast 357 411 23,500 -900 Descending FlightAware ADS-B
06:58PM 30.7346 -96.7997 148° Southeast 357 411 23,400 -1,020 Descending FlightAware ADS-B
06:59PM 30.6665 -96.6928 125° Southeast 353 406 22,200 -960 Descending FlightAware ADS-B
07:01PM 30.5513 -96.4983 124° Southeast 392 451 20,400 -840 Descending FlightAware ADS-B
07:01PM 30.5349 -96.4704 124° Southeast 393 452 20,300 -540 Descending FlightAware ADS-B
07:01PM 30.5255 -96.4568 129° Southeast 392 451 20,200 -480 Descending FlightAware ADS-B
07:02PM 30.4855 -96.4080 134° Southeast 391 450 20,000 -480 Descending FlightAware ADS-B
07:03PM 30.4163 -96.3228 133° Southeast 385 443 19,500 -600 Descending FlightAware ADS-B
07:03PM 30.4058 -96.3077 129° Southeast 384 442 19,400 -2,820 Descending FlightAware ADS-B
07:04PM 30.3489 -96.1890 118° Southeast 371 427 15,900 -3,120 Descending FlightAware ADS-B
07:05PM 30.3251 -96.1365 118° Southeast 362 417 14,400 -2,880 Descending FlightAware ADS-B
07:05PM 30.3014 -96.0859 118° Southeast 346 398 13,000 -2,880 Descending FlightAware ADS-B
07:06PM 30.2831 -96.0463 118° Southeast 338 389 11,800 -2,100 Descending FlightAware ADS-B
07:07PM 30.2417 -95.9559 118° Southeast 292 336 10,100 -1,740 Descending FlightAware ADS-B
07:07PM 30.2352 -95.9426 121° Southeast 283 326 9,800 -1,860 Descending FlightAware ADS-B
07:07PM 30.2327 -95.9388 127° Southeast 282 325 9,700 -2,460 Descending FlightAware ADS-B
07:07PM 30.2130 -95.9225 154° Southeast 276 318 8,900 -2,280 Descending FlightAware ADS-B
07:08PM 30.1601 -95.8943 156° South 265 305 7,200 -2,100 Descending FlightAware ADS-B
07:08PM 30.1454 -95.8866 156° South 263 303 6,800 -2,100 Descending FlightAware ADS-B
07:08PM 30.1278 -95.8774 156° South 262 302 6,200 -2,400 Descending FlightAware ADS-B
07:09PM 30.1202 -95.8731 154° Southeast 262 302 5,900 -2,400 Descending FlightAware ADS-B
07:09PM 30.1169 -95.8709 150° Southeast 262 302 5,800 -1,740 Descending FlightAware ADS-B
07:09PM 30.1136 -95.8683 146° Southeast 261 300 5,700 -2,280 Descending FlightAware ADS-B
07:09PM 30.1098 -95.8646 140° Southeast 261 300 5,500 -2,580 Descending FlightAware ADS-B
07:09PM 30.1071 -95.8614 134° Southeast 262 302 5,400 -2,040 Descending FlightAware ADS-B
07:09PM 30.1047 -95.8579 128° Southeast 263 303 5,300 -1,140 Descending FlightAware ADS-B
07:09PM 30.1002 -95.8484 115° Southeast 261 300 5,200 -1,140 Descending FlightAware ADS-B
07:09PM 30.0987 -95.8436 110° East 260 299 5,100 -1,440 Descending FlightAware ADS-B
07:09PM 30.0952 -95.8305 107° East 258 297 4,900 -1,320 Descending FlightAware ADS-B
07:09PM 30.0922 -95.8194 107° East 258 297 4,700 -1,320 Descending FlightAware ADS-B
07:09PM 30.0883 -95.8066 109° East 258 297 4,500 -1,440 Descending FlightAware ADS-B
07:10PM 30.0818 -95.7874 111° Southeast 255 293 4,100 -1,020 Descending FlightAware ADS-B
07:10PM 30.0754 -95.7675 110° East 258 297 4,000 -240 Descending FlightAware ADS-B
07:10PM 30.0695 -95.7485 110° East 244 281 4,000  Level FlightAware ADS-B
07:10PM 30.0640 -95.7295 108° East 227 261 4,000  Level FlightAware ADS-B
07:11PM 30.0621 -95.7227 108° East 222 255 4,000  Level FlightAware ADS-B
07:11PM 30.0595 -95.7133 108° East 212 244 4,000 -780 Level FlightAware ADS-B
07:11PM 30.0549 -95.6966 108° East 208 239 3,700 -1,200 Descending FlightAware ADS-B
07:11PM 30.0506 -95.6804 107° East 209 241 3,400 -1,260 Descending FlightAware ADS-B
07:11PM 30.0466 -95.6659 108° East 208 239 3,100 -1,020 Descending FlightAware ADS-B
07:12PM 30.0435 -95.6555 109° East 207 238 3,000 -240 Descending FlightAware ADS-B
07:12PM 30.0388 -95.6398 109° East 205 236 3,000  Level FlightAware ADS-B
07:12PM 30.0340 -95.6238 109° East 205 236 3,000  Level FlightAware ADS-B
07:12PM 30.0299 -95.6107 110° East 207 238 3,000  Level FlightAware ADS-B
07:13PM 30.0250 -95.5953 110° East 206 237 3,000  Level FlightAware ADS-B
07:13PM 30.0197 -95.5791 111° Southeast 208 239 3,000  Level FlightAware ADS-B
07:13PM 30.0142 -95.5616 110° East 208 239 3,000  Level FlightAware ADS-B
07:13PM 30.0117 -95.5527 108° East 206 237 3,000  Level FlightAware ADS-B
07:13PM 30.0110 -95.5494 104° East 206 237 3,000  Level FlightAware ADS-B
07:13PM 30.0103 -95.5447 100° East 207 238 3,000 -540 Level FlightAware ADS-B
07:14PM 30.0084 -95.5239 96° East 211 243 2,800 -900 Descending FlightAware ADS-B
07:14PM 30.0072 -95.5145 98° East 211 243 2,600 -1,020 Descending FlightAware ADS-B
07:14PM 30.0067 -95.5111 100° East 212 244 2,600 -720 Level FlightAware ADS-B
07:14PM 30.0064 -95.5053 93° East 211 243 2,500 -1,200 Descending FlightAware ADS-B
07:14PM 30.0064 -95.4991 90° East 208 239 2,400 -1,200 Descending FlightAware ADS-B
07:14PM 30.0065 -95.4880 89° East 208 239 2,200 -1,200 Descending FlightAware ADS-B
07:15PM 30.0070 -95.4712 88° East 207 238 1,900 -1,080 Descending FlightAware ADS-B
07:15PM 30.0072 -95.4559 89° East 203 234 1,700 -1,020 Descending FlightAware ADS-B
07:15PM 30.0071 -95.4384 90° East 188 216 1,400 -1,080 Descending FlightAware ADS-B
07:15PM 30.0071 -95.4227 90° East 157 181 1,100 -840 Descending FlightAware ADS-B
07:16PM 30.0071 -95.4127 90° East 152 175 1,000 -660 Descending FlightAware ADS-B
07:16PM 30.0071 -95.3997 90° East 155 178 800 -720 Descending FlightAware ADS-B
07:16PM 30.0071 -95.3927 90° East 155 178 700 -900 Descending FlightAware ADS-B
07:16PM 30.0071 -95.3825 90° East 159 183 500 -840 Descending FlightAware ADS-B
07:16PM 30.0072 -95.3733 89° East 153 176 400 -780 Descending FlightAware ADS-B
07:17PM 30.0072 -95.3627 90° East 148 170 200 -1,020 Descending FlightAware ADS-B
07:17PM 30.0072 -95.3589 90° East 147 169 100 -1,200 Descending FlightAware ADS-B